Time;durP1;ratioP1;P1;durP2;ratioP2;P2;SDS_P1;SDS_P2;PMS_P1;PMS_P2;Temp;Humidity;BMP_temperature;BMP_pressure;BME280_temperature;BME280_humidity;BME280_pressure;Samples;Min_cycle;Max_cycle;Signal;HPM_P1;HPM_P2
2022/07/01 00:00:12;;;;;;;6.35;5.38;;;23.40;99.30;;;;;;4997250;28;20231;-89
2022/07/01 00:02:38;;;;;;;8.45;5.63;;;23.30;99.30;;;;;;5011849;28;20238;-90
2022/07/01 00:05:04;;;;;;;8.77;5.93;;;23.40;99.60;;;;;;5017850;28;20187;-89
2022/07/01 00:07:30;;;;;;;6.75;5.03;;;23.40;99.50;;;;;;5005696;28;20656;-91
2022/07/01 00:09:56;;;;;;;7.10;6.00;;;23.30;99.40;;;;;;5014920;28;20206;-90
2022/07/01 00:12:57;;;;;;;6.88;6.05;;;23.30;99.90;;;;;;4992935;28;20187;-93
2022/07/01 00:15:23;;;;;;;9.00;5.90;;;23.20;99.90;;;;;;4993622;28;20227;-90
2022/07/01 00:17:50;;;;;;;6.38;5.65;;;23.20;99.90;;;;;;4996913;28;20190;-89
2022/07/01 00:20:16;;;;;;;6.60;5.50;;;23.10;99.80;;;;;;5012041;28;20530;-89
2022/07/01 00:22:43;;;;;;;9.75;6.13;;;23.10;99.90;;;;;;4998101;28;20533;-90
2022/07/01 00:25:09;;;;;;;9.25;6.43;;;23.10;99.90;;;;;;4996555;28;20223;-91
2022/07/01 00:27:42;;;;;;;6.55;5.40;;;23.20;99.90;;;;;;5008341;28;20234;-89
2022/07/01 00:30:09;;;;;;;8.48;6.43;;;23.20;99.90;;;;;;5015135;28;20240;-88
2022/07/01 00:32:36;;;;;;;7.68;6.00;;;23.20;99.90;;;;;;4976340;28;20634;-89
2022/07/01 00:35:02;;;;;;;6.63;5.78;;;23.20;99.90;;;;;;4991840;28;20199;-92
2022/07/01 00:37:28;;;;;;;11.98;5.60;;;23.20;99.90;;;;;;4985246;28;20196;-88
2022/07/01 00:39:54;;;;;;;7.20;6.20;;;23.20;99.90;;;;;;4997369;28;20180;-90
2022/07/01 00:42:22;;;;;;;7.72;5.80;;;23.20;99.90;;;;;;4996840;28;20242;-91
2022/07/01 00:44:47;;;;;;;8.73;5.38;;;23.10;99.90;;;;;;5003158;28;20621;-90
2022/07/01 00:47:13;;;;;;;6.35;5.28;;;23.10;99.90;;;;;;5003905;28;20206;-90
2022/07/01 00:49:40;;;;;;;6.30;4.28;;;23.00;99.90;;;;;;4996048;28;20283;-94
2022/07/01 00:52:10;;;;;;;4.95;3.80;;;23.00;99.90;;;;;;5015495;28;20206;-89
2022/07/01 00:54:37;;;;;;;6.03;3.47;;;23.00;99.80;;;;;;4993165;28;20196;-89
2022/07/01 00:57:07;;;;;;;5.13;3.60;;;22.90;99.90;;;;;;4994574;28;20219;-93
2022/07/01 00:59:35;;;;;;;5.50;3.80;;;22.80;99.90;;;;;;5016043;28;20175;-89
2022/07/01 01:02:01;;;;;;;7.05;3.67;;;22.70;99.90;;;;;;5000765;28;20279;-92
2022/07/01 01:04:29;;;;;;;5.53;3.45;;;22.60;99.90;;;;;;4995319;28;20176;-90
2022/07/01 01:06:55;;;;;;;3.67;2.80;;;22.60;99.90;;;;;;5008610;28;20211;-90
2022/07/01 01:09:21;;;;;;;7.25;3.30;;;22.50;99.90;;;;;;4995399;28;20180;-90
2022/07/01 01:11:57;;;;;;;7.28;3.00;;;22.40;99.90;;;;;;4995074;28;20187;-90
2022/07/01 01:14:25;;;;;;;4.85;3.00;;;22.30;99.90;;;;;;4996722;28;20184;-91
2022/07/01 01:16:51;;;;;;;4.45;3.03;;;22.20;99.90;;;;;;4997121;28;20184;-89
2022/07/01 01:19:16;;;;;;;6.70;3.20;;;22.10;99.90;;;;;;5009087;28;20234;-89
2022/07/01 01:21:42;;;;;;;5.25;3.40;;;22.10;99.90;;;;;;5011579;28;20254;-89
2022/07/01 01:24:09;;;;;;;4.97;3.30;;;22.00;99.90;;;;;;5001111;28;20631;-91
2022/07/01 01:26:34;;;;;;;4.40;3.40;;;21.90;99.90;;;;;;4993657;28;20188;-89
2022/07/01 01:29:00;;;;;;;5.30;3.45;;;21.80;99.90;;;;;;5010453;28;20626;-94
2022/07/01 01:31:32;;;;;;;3.85;3.40;;;21.70;99.90;;;;;;4994681;28;20188;-94
2022/07/01 01:34:02;;;;;;;6.80;3.60;;;21.70;99.90;;;;;;4994214;28;20183;-93
2022/07/01 01:36:28;;;;;;;4.60;3.40;;;21.50;99.90;;;;;;4994756;28;20210;-92
2022/07/01 01:38:57;;;;;;;4.93;3.40;;;21.50;99.90;;;;;;4993771;28;20207;-92
2022/07/01 01:41:23;;;;;;;6.38;3.88;;;21.50;99.90;;;;;;4994075;28;20245;-90
2022/07/01 01:43:51;;;;;;;7.32;3.75;;;21.50;99.90;;;;;;5005738;28;20184;-90
2022/07/01 01:46:16;;;;;;;4.13;3.30;;;21.60;99.90;;;;;;4987698;28;20184;-90
2022/07/01 01:48:42;;;;;;;5.82;3.88;;;21.50;99.90;;;;;;4992921;28;20215;-89
2022/07/01 01:51:08;;;;;;;7.80;3.53;;;21.50;99.90;;;;;;4993236;28;20226;-90
2022/07/01 01:53:40;;;;;;;5.97;3.55;;;21.50;99.90;;;;;;5010632;28;20241;-90
2022/07/01 01:56:06;;;;;;;4.30;3.78;;;21.40;99.90;;;;;;4995410;28;20215;-89
2022/07/01 01:58:31;;;;;;;5.95;4.05;;;21.40;99.90;;;;;;5008670;28;20187;-91
2022/07/01 02:00:57;;;;;;;5.22;4.10;;;21.50;99.90;;;;;;5008572;28;20176;-89
2022/07/01 02:03:24;;;;;;;5.72;4.20;;;21.40;99.90;;;;;;4982310;28;20238;-91
2022/07/01 02:05:50;;;;;;;6.03;4.22;;;21.40;99.90;;;;;;4995292;28;20183;-91
2022/07/01 02:08:15;;;;;;;5.68;4.57;;;21.30;99.90;;;;;;5010332;28;20235;-91
2022/07/01 02:10:41;;;;;;;6.32;4.85;;;21.30;99.90;;;;;;4993790;28;20224;-91
2022/07/01 02:13:15;;;;;;;8.13;4.55;;;21.20;99.90;;;;;;4989286;28;20215;-95
2022/07/01 02:15:40;;;;;;;10.32;5.13;;;21.20;99.90;;;;;;4996519;28;20184;-94
2022/07/01 02:18:06;;;;;;;7.68;5.60;;;21.10;99.90;;;;;;4994206;28;20195;-90
2022/07/01 02:20:32;;;;;;;5.32;4.82;;;21.10;99.90;;;;;;5001191;28;20199;-91
2022/07/01 02:23:15;;;;;;;8.23;5.55;;;21.10;99.90;;;;;;4994583;28;20188;-92
2022/07/01 02:25:42;;;;;;;6.80;5.10;;;21.10;99.90;;;;;;4976043;28;20187;-92
2022/07/01 02:28:08;;;;;;;5.32;4.82;;;21.10;99.90;;;;;;4980738;28;20662;-88
2022/07/01 02:30:37;;;;;;;8.57;5.72;;;21.10;99.90;;;;;;4991250;28;20188;-89
2022/07/01 02:33:05;;;;;;;6.85;5.32;;;21.00;99.90;;;;;;4995113;28;20214;-89
2022/07/01 02:35:32;;;;;;;10.38;4.30;;;21.00;99.90;;;;;;5012449;28;20219;-93
2022/07/01 02:37:58;;;;;;;6.07;5.28;;;21.00;99.90;;;;;;5003141;28;20238;-90
2022/07/01 02:40:24;;;;;;;5.50;4.60;;;20.90;99.90;;;;;;4994255;28;20198;-88
2022/07/01 02:42:50;;;;;;;8.25;5.38;;;20.90;99.90;;;;;;4993375;28;21324;-85
2022/07/01 02:45:16;;;;;;;7.13;5.82;;;20.80;99.90;;;;;;4993732;28;20199;-84
2022/07/01 02:47:42;;;;;;;6.53;4.97;;;20.70;99.90;;;;;;4997992;28;20215;-85
2022/07/01 02:50:09;;;;;;;7.18;5.10;;;20.60;99.90;;;;;;5006927;28;20203;-85
2022/07/01 02:52:36;;;;;;;5.78;5.18;;;20.60;99.90;;;;;;4991884;28;20535;-85
2022/07/01 02:55:03;;;;;;;7.72;5.10;;;20.50;99.90;;;;;;4993732;28;20267;-83
2022/07/01 02:57:29;;;;;;;6.00;5.07;;;20.50;99.90;;;;;;5007217;28;20263;-85
2022/07/01 02:59:55;;;;;;;7.47;4.88;;;20.50;99.90;;;;;;5003700;28;20319;-83
2022/07/01 03:02:21;;;;;;;6.18;5.03;;;20.40;99.90;;;;;;5006694;28;20496;-83
2022/07/01 03:04:48;;;;;;;5.15;4.63;;;20.40;99.90;;;;;;5012540;28;20189;-81
2022/07/01 03:07:16;;;;;;;6.10;5.00;;;20.30;99.90;;;;;;4990141;28;20237;-84
2022/07/01 03:09:43;;;;;;;5.05;4.10;;;20.30;99.90;;;;;;4996365;28;20194;-81
2022/07/01 03:12:25;;;;;;;3.85;2.83;;;20.30;99.90;;;;;;5015182;28;20179;-83
2022/07/01 03:14:53;;;;;;;2.50;2.30;;;20.30;99.90;;;;;;5003461;28;20227;-83
2022/07/01 03:17:19;;;;;;;3.17;2.13;;;20.20;99.90;;;;;;4996292;28;20283;-85
2022/07/01 03:19:46;;;;;;;3.92;2.10;;;20.20;99.90;;;;;;4997096;28;20203;-84
2022/07/01 03:22:12;;;;;;;1.90;1.70;;;20.10;99.90;;;;;;4996374;28;20191;-84
2022/07/01 03:24:38;;;;;;;2.92;2.00;;;20.10;99.90;;;;;;4994911;28;20218;-84
2022/07/01 03:27:04;;;;;;;4.07;2.47;;;20.00;99.90;;;;;;4994613;28;20235;-86
2022/07/01 03:29:30;;;;;;;3.60;2.50;;;19.90;99.90;;;;;;5016735;28;20187;-86
2022/07/01 03:31:55;;;;;;;5.55;3.33;;;19.80;99.90;;;;;;5005257;28;20187;-84
2022/07/01 03:34:21;;;;;;;4.80;3.42;;;19.70;99.90;;;;;;5012461;28;20195;-81
2022/07/01 03:36:47;;;;;;;3.85;3.38;;;19.70;99.90;;;;;;4994940;28;20630;-85
2022/07/01 03:39:13;;;;;;;4.82;3.78;;;19.50;99.90;;;;;;5001137;28;20573;-88
2022/07/01 03:41:39;;;;;;;5.07;4.55;;;19.50;99.90;;;;;;5006009;28;20230;-83
2022/07/01 03:44:08;;;;;;;6.30;5.30;;;19.50;99.90;;;;;;4995765;28;20188;-83
2022/07/01 03:46:35;;;;;;;7.32;6.60;;;19.40;99.90;;;;;;5005772;28;20180;-86
2022/07/01 03:49:02;;;;;;;7.50;6.70;;;19.30;99.90;;;;;;5010604;28;20199;-84
2022/07/01 03:51:28;;;;;;;7.30;6.60;;;19.30;99.90;;;;;;4989310;28;20187;-84
2022/07/01 03:56:38;;;;;;;10.75;6.82;;;19.20;99.90;;;;;;4983005;28;20299;-83
2022/07/01 03:59:03;;;;;;;8.98;6.30;;;19.20;99.90;;;;;;4995824;28;20243;-84
2022/07/01 04:01:29;;;;;;;7.18;6.40;;;19.20;99.90;;;;;;4994916;28;20195;-84
2022/07/01 04:03:56;;;;;;;7.10;6.40;;;19.10;99.90;;;;;;4996401;28;20176;-86
2022/07/01 04:06:22;;;;;;;8.48;6.78;;;19.10;99.90;;;;;;4995394;28;20176;-84
2022/07/01 04:08:48;;;;;;;6.10;5.50;;;19.00;99.90;;;;;;4995678;28;20219;-88
2022/07/01 04:11:15;;;;;;;4.95;4.15;;;19.00;99.90;;;;;;4994579;28;20215;-88
2022/07/01 04:13:41;;;;;;;4.00;3.60;;;18.90;99.90;;;;;;4994816;28;20270;-85
2022/07/01 04:16:08;;;;;;;3.78;3.40;;;18.90;99.90;;;;;;5005512;28;20210;-87
2022/07/01 04:18:34;;;;;;;4.20;3.13;;;18.90;99.90;;;;;;4993334;28;20198;-86
2022/07/01 04:23:44;;;;;;;3.75;2.70;;;18.80;99.90;;;;;;4996460;28;20265;-87
2022/07/01 04:26:12;;;;;;;2.90;2.25;;;18.70;99.90;;;;;;4994433;28;20941;-86
2022/07/01 04:28:38;;;;;;;4.18;2.70;;;18.70;99.90;;;;;;4995786;28;20219;-88
2022/07/01 04:31:03;;;;;;;4.55;2.22;;;18.70;99.90;;;;;;4994018;28;20186;-85
2022/07/01 04:33:29;;;;;;;3.35;2.30;;;18.70;99.90;;;;;;4992473;28;20211;-86
2022/07/01 04:35:56;;;;;;;2.97;1.70;;;18.70;99.90;;;;;;4995279;28;20198;-85
2022/07/01 04:38:21;;;;;;;2.65;2.00;;;18.70;99.90;;;;;;4994004;28;20180;-85
2022/07/01 04:43:31;;;;;;;2.70;2.13;;;18.70;99.90;;;;;;5014052;28;20294;-85
2022/07/01 04:45:57;;;;;;;2.63;2.13;;;18.70;99.90;;;;;;5011322;28;20266;-83
2022/07/01 04:48:22;;;;;;;2.92;2.63;;;18.60;99.90;;;;;;4986903;28;20684;-82
2022/07/01 04:50:48;;;;;;;3.13;2.80;;;18.60;99.90;;;;;;4986130;28;20176;-82
2022/07/01 04:53:14;;;;;;;4.72;2.53;;;18.50;99.90;;;;;;4987001;28;20247;-82
2022/07/01 04:55:40;;;;;;;4.15;2.72;;;18.50;99.90;;;;;;4987994;28;20183;-84
2022/07/01 04:58:06;;;;;;;3.60;2.80;;;18.50;99.90;;;;;;4990973;28;20237;-85
2022/07/01 05:00:32;;;;;;;4.60;3.08;;;18.60;99.90;;;;;;4982424;28;20653;-84
2022/07/01 05:02:58;;;;;;;4.72;3.28;;;18.50;99.90;;;;;;4988981;28;20192;-85
2022/07/01 05:05:23;;;;;;;3.22;2.92;;;18.50;99.90;;;;;;4989631;28;20520;-86
2022/07/01 05:07:49;;;;;;;3.33;3.08;;;18.50;99.90;;;;;;4992638;28;20262;-85
2022/07/01 05:10:15;;;;;;;3.22;2.90;;;18.50;99.90;;;;;;4993795;28;20279;-84
2022/07/01 05:12:40;;;;;;;3.88;2.90;;;18.40;99.90;;;;;;4994407;28;20268;-85
2022/07/01 05:15:08;;;;;;;4.40;2.97;;;18.40;99.90;;;;;;4997911;28;20202;-86
2022/07/01 05:23:02;;;;;;;3.58;2.55;;;18.30;99.90;;;;;;4994607;28;20234;-86
2022/07/01 05:25:28;;;;;;;4.10;2.80;;;18.30;99.90;;;;;;4992542;28;20188;-85
2022/07/01 05:27:56;;;;;;;2.38;1.92;;;18.20;99.90;;;;;;4995884;28;20238;-85
2022/07/01 05:30:22;;;;;;;2.20;2.00;;;18.20;99.90;;;;;;5013605;28;20206;-86
2022/07/01 05:32:48;;;;;;;2.08;1.95;;;18.20;99.90;;;;;;5002996;28;20222;-86
2022/07/01 05:35:15;;;;;;;3.55;2.10;;;18.00;99.90;;;;;;5005715;28;20219;-88
2022/07/01 05:37:43;;;;;;;2.17;1.98;;;18.00;99.90;;;;;;4991283;28;20290;-87
2022/07/01 05:40:09;;;;;;;2.42;2.13;;;18.00;99.90;;;;;;4994864;28;20674;-86
2022/07/01 05:42:35;;;;;;;4.05;1.90;;;17.90;99.90;;;;;;4990155;28;20371;-86
2022/07/01 05:45:01;;;;;;;3.28;2.05;;;17.90;99.90;;;;;;4981047;28;20606;-87
2022/07/01 05:47:27;;;;;;;2.28;1.98;;;17.90;99.90;;;;;;4994341;28;20227;-86
2022/07/01 05:49:53;;;;;;;1.60;1.48;;;17.90;99.90;;;;;;4991779;28;20195;-87
2022/07/01 05:52:19;;;;;;;2.13;1.90;;;17.80;99.90;;;;;;5011545;28;20183;-87
2022/07/01 05:54:44;;;;;;;2.88;1.60;;;17.80;99.90;;;;;;5006531;28;20331;-87
2022/07/01 05:57:10;;;;;;;1.60;1.50;;;17.80;99.90;;;;;;4990913;28;20180;-86
2022/07/01 05:59:36;;;;;;;1.60;1.42;;;17.80;99.90;;;;;;4993569;28;20191;-87
2022/07/01 06:02:03;;;;;;;3.30;1.70;;;17.80;99.90;;;;;;4994396;28;20184;-86
2022/07/01 06:04:28;;;;;;;1.90;1.30;;;17.80;99.90;;;;;;4994552;28;20168;-86
2022/07/01 06:06:55;;;;;;;2.33;1.30;;;17.80;99.90;;;;;;4991478;28;20546;-86
2022/07/01 06:09:21;;;;;;;1.42;1.00;;;17.90;99.90;;;;;;5003029;28;20217;-86
2022/07/01 06:11:46;;;;;;;1.00;0.90;;;17.80;99.90;;;;;;4999740;28;20194;-85
2022/07/01 06:14:13;;;;;;;2.08;1.20;;;17.80;99.90;;;;;;4994237;28;20211;-85
2022/07/01 06:16:40;;;;;;;2.78;1.25;;;17.70;99.90;;;;;;4994638;28;20267;-87
2022/07/01 06:19:06;;;;;;;1.17;1.08;;;17.80;99.90;;;;;;4994019;28;20187;-86
2022/07/01 06:21:32;;;;;;;1.02;0.90;;;17.80;99.90;;;;;;4993148;28;20190;-91
2022/07/01 06:23:58;;;;;;;1.85;0.98;;;17.90;99.90;;;;;;4994967;28;20176;-88
2022/07/01 06:26:24;;;;;;;1.23;1.13;;;17.90;99.90;;;;;;4986194;28;20191;-87
2022/07/01 06:28:50;;;;;;;1.95;0.90;;;17.90;99.90;;;;;;5001327;28;20651;-87
2022/07/01 06:31:16;;;;;;;2.45;1.10;;;17.90;99.90;;;;;;4994477;28;20180;-85
2022/07/01 06:33:41;;;;;;;1.55;1.00;;;17.90;99.90;;;;;;5000138;28;20191;-87
2022/07/01 06:36:07;;;;;;;1.13;1.02;;;17.90;99.90;;;;;;5014619;28;20179;-85
2022/07/01 06:38:33;;;;;;;1.10;1.00;;;17.90;99.90;;;;;;4997495;28;20180;-86
2022/07/01 06:43:43;;;;;;;1.85;1.13;;;18.00;99.90;;;;;;5004609;28;20523;-85
2022/07/01 06:46:09;;;;;;;1.63;1.10;;;18.10;99.90;;;;;;4998400;28;20255;-86
2022/07/01 06:48:36;;;;;;;4.72;1.20;;;18.20;99.90;;;;;;5007698;28;20298;-86
2022/07/01 06:51:02;;;;;;;1.17;1.08;;;18.20;99.90;;;;;;5009689;28;20270;-86
2022/07/01 06:53:28;;;;;;;1.35;0.95;;;18.20;99.90;;;;;;5010866;28;20245;-86
2022/07/01 06:55:55;;;;;;;1.70;1.17;;;18.30;99.90;;;;;;5007369;28;20277;-85
2022/07/01 06:58:23;;;;;;;1.65;1.08;;;18.30;99.90;;;;;;5016540;28;20324;-86
2022/07/01 07:00:49;;;;;;;1.20;1.10;;;18.30;99.90;;;;;;5002000;28;20183;-85
2022/07/01 07:03:14;;;;;;;2.38;1.05;;;18.30;99.90;;;;;;5011182;28;20653;-86
2022/07/01 07:05:41;;;;;;;1.73;1.00;;;18.30;99.90;;;;;;5000571;28;20203;-87
2022/07/01 07:08:07;;;;;;;1.75;1.00;;;18.20;99.90;;;;;;4997727;28;20226;-87
2022/07/01 07:10:32;;;;;;;1.83;0.98;;;18.10;99.90;;;;;;4997125;28;20180;-89
2022/07/01 07:12:58;;;;;;;3.83;1.00;;;18.00;99.90;;;;;;4999738;28;20191;-85
2022/07/01 07:15:24;;;;;;;1.83;1.10;;;17.90;99.90;;;;;;4987684;28;20184;-89
2022/07/01 07:17:50;;;;;;;1.60;1.05;;;17.90;99.90;;;;;;5003020;28;20175;-87
2022/07/01 07:20:16;;;;;;;1.10;1.00;;;17.90;99.90;;;;;;5004280;28;20192;-88
2022/07/01 07:22:42;;;;;;;1.23;0.93;;;18.00;99.90;;;;;;4987915;28;20630;-89
2022/07/01 07:25:08;;;;;;;1.35;1.10;;;18.00;99.90;;;;;;4986220;28;20192;-88
2022/07/01 07:27:36;;;;;;;2.20;1.02;;;18.00;99.90;;;;;;4978512;28;20212;-89
2022/07/01 07:30:03;;;;;;;2.95;1.20;;;18.00;99.90;;;;;;4985593;28;20226;-87
2022/07/01 07:32:29;;;;;;;1.38;0.93;;;18.00;99.90;;;;;;4998061;28;20179;-88
2022/07/01 07:34:54;;;;;;;3.30;1.05;;;18.10;99.90;;;;;;4996501;28;20183;-87
2022/07/01 07:37:21;;;;;;;1.35;0.93;;;18.00;99.90;;;;;;4996861;28;20176;-88
2022/07/01 07:39:47;;;;;;;1.35;0.85;;;18.10;99.90;;;;;;4997314;28;20310;-89
2022/07/01 07:42:13;;;;;;;0.95;0.88;;;18.00;99.90;;;;;;4997946;28;20240;-88
2022/07/01 07:44:39;;;;;;;1.77;1.00;;;18.00;99.90;;;;;;4997833;28;20179;-88
2022/07/01 07:47:04;;;;;;;1.00;0.90;;;18.10;99.90;;;;;;4997733;28;20578;-88
2022/07/01 07:49:30;;;;;;;1.50;1.08;;;18.00;99.90;;;;;;4995925;28;20558;-88
2022/07/01 07:51:56;;;;;;;3.80;1.17;;;18.00;99.90;;;;;;4996138;28;20274;-89
2022/07/01 07:54:21;;;;;;;3.75;1.30;;;18.00;99.90;;;;;;4996523;28;20179;-89
2022/07/01 07:56:50;;;;;;;3.72;1.88;;;18.00;99.90;;;;;;4997459;28;20180;-87
2022/07/01 07:59:16;;;;;;;2.28;1.50;;;18.00;99.90;;;;;;4996342;28;20211;-87
2022/07/01 08:01:41;;;;;;;5.43;1.98;;;18.00;99.90;;;;;;4997550;28;20219;-88
2022/07/01 08:04:07;;;;;;;2.33;2.13;;;18.00;99.90;;;;;;4987906;28;20181;-87
2022/07/01 08:06:34;;;;;;;3.38;2.38;;;17.90;99.90;;;;;;4976522;28;20262;-91
2022/07/01 08:09:00;;;;;;;4.15;2.35;;;17.80;99.90;;;;;;4976885;28;20212;-87
2022/07/01 08:11:26;;;;;;;3.47;2.38;;;17.80;99.90;;;;;;4977961;28;20173;-88
2022/07/01 08:13:51;;;;;;;4.53;2.60;;;17.70;99.90;;;;;;4976615;28;20180;-88
2022/07/01 08:16:17;;;;;;;7.10;2.78;;;17.70;99.90;;;;;;4976715;28;20270;-90
2022/07/01 08:18:42;;;;;;;3.72;2.88;;;17.60;99.90;;;;;;4976759;28;20260;-89
2022/07/01 08:21:08;;;;;;;4.63;2.85;;;17.60;99.90;;;;;;4989716;28;20187;-88
2022/07/01 08:23:35;;;;;;;7.72;2.90;;;17.60;99.90;;;;;;4995839;28;20676;-89
2022/07/01 08:26:02;;;;;;;6.28;3.05;;;17.60;99.90;;;;;;4995852;28;20180;-88
2022/07/01 08:28:28;;;;;;;4.63;3.30;;;17.60;99.90;;;;;;4997008;28;20235;-90
2022/07/01 08:30:54;;;;;;;5.07;3.42;;;17.60;99.90;;;;;;5011666;28;20728;-92
2022/07/01 08:33:20;;;;;;;5.95;3.25;;;17.50;99.90;;;;;;4997224;28;20183;-89
2022/07/01 08:35:46;;;;;;;4.18;3.17;;;17.50;99.90;;;;;;5012137;28;20187;-88
2022/07/01 08:38:12;;;;;;;4.70;3.33;;;17.50;99.90;;;;;;5012244;28;20243;-89
2022/07/01 08:40:38;;;;;;;3.55;3.25;;;17.50;99.90;;;;;;4995538;28;20277;-88
2022/07/01 08:43:06;;;;;;;4.32;3.30;;;17.40;99.90;;;;;;4996293;28;20235;-91
2022/07/01 08:45:38;;;;;;;5.72;3.67;;;17.30;99.90;;;;;;4996499;28;20192;-87
2022/07/01 08:48:05;;;;;;;5.15;3.47;;;17.30;99.90;;;;;;4995369;28;20215;-87
2022/07/01 08:50:35;;;;;;;10.20;3.53;;;17.20;99.90;;;;;;4996420;28;20183;-89
2022/07/01 08:53:00;;;;;;;4.68;3.55;;;17.10;99.90;;;;;;4995093;28;20614;-88
2022/07/01 08:55:27;;;;;;;4.82;3.40;;;17.10;99.90;;;;;;4994881;28;20184;-91
2022/07/01 08:57:53;;;;;;;6.53;3.97;;;17.10;99.90;;;;;;4996324;28;20184;-87
2022/07/01 09:00:19;;;;;;;4.53;3.67;;;17.10;99.90;;;;;;4992880;28;20254;-88
2022/07/01 09:02:56;;;;;;;5.90;3.63;;;17.10;99.90;;;;;;4994958;28;20195;-84
2022/07/01 09:05:24;;;;;;;4.65;3.63;;;17.10;99.90;;;;;;4995775;28;20195;-85
2022/07/01 09:07:59;;;;;;;4.03;3.63;;;17.10;99.90;;;;;;4993823;28;20568;-84
2022/07/01 09:10:26;;;;;;;5.65;3.92;;;17.20;99.90;;;;;;4990382;28;20187;-84
2022/07/01 09:12:52;;;;;;;6.15;4.50;;;17.20;99.90;;;;;;4993523;28;20194;-86
2022/07/01 09:15:31;;;;;;;6.13;4.13;;;17.30;99.90;;;;;;4993059;28;20188;-85
2022/07/01 09:18:10;;;;;;;5.85;4.50;;;17.30;99.90;;;;;;4995067;28;20266;-84
2022/07/01 09:20:42;;;;;;;5.53;4.35;;;17.40;99.90;;;;;;4993816;28;20610;-85
2022/07/01 09:23:16;;;;;;;4.93;4.30;;;17.40;99.90;;;;;;4983432;28;20188;-88
2022/07/01 09:25:51;;;;;;;8.43;4.20;;;17.40;99.90;;;;;;4990130;28;20225;-88
2022/07/01 09:28:25;;;;;;;5.20;3.95;;;17.40;99.90;;;;;;4994836;28;20203;-89
2022/07/01 09:30:59;;;;;;;5.32;4.22;;;17.40;99.90;;;;;;4997144;28;20196;-87
2022/07/01 09:33:26;;;;;;;6.05;4.45;;;17.40;99.90;;;;;;4994975;28;20168;-88
2022/07/01 09:35:53;;;;;;;6.97;4.13;;;17.40;99.90;;;;;;4994023;28;20606;-88
2022/07/01 09:38:25;;;;;;;8.80;5.13;;;17.40;99.90;;;;;;4991060;28;20176;-87
2022/07/01 09:41:07;;;;;;;7.55;5.32;;;17.40;99.90;;;;;;4992145;28;20176;-88
2022/07/01 09:43:34;;;;;;;7.50;5.00;;;17.40;99.90;;;;;;4993957;28;20188;-87
2022/07/01 09:46:10;;;;;;;7.82;4.68;;;17.40;99.90;;;;;;4995620;28;20279;-88
2022/07/01 09:48:36;;;;;;;9.63;4.82;;;17.40;99.90;;;;;;4994007;28;20207;-88
2022/07/01 09:51:05;;;;;;;7.68;4.82;;;17.40;99.90;;;;;;4996212;28;20183;-87
2022/07/01 09:53:31;;;;;;;5.50;4.80;;;17.40;99.90;;;;;;4995235;28;20199;-88
2022/07/01 09:55:57;;;;;;;6.55;5.03;;;17.40;99.90;;;;;;4995924;28;20605;-90
2022/07/01 09:58:25;;;;;;;5.43;4.43;;;17.40;99.90;;;;;;4997163;28;20195;-88
2022/07/01 10:00:52;;;;;;;9.52;4.50;;;17.50;99.90;;;;;;4992823;28;20183;-88
2022/07/01 10:03:19;;;;;;;5.50;4.90;;;17.50;99.90;;;;;;4976210;28;20185;-89
2022/07/01 10:05:54;;;;;;;6.00;5.30;;;17.60;99.90;;;;;;4978645;28;20366;-87
2022/07/01 10:08:39;;;;;;;6.65;4.45;;;17.50;99.90;;;;;;4978017;28;20984;-86
2022/07/01 10:11:50;;;;;;;5.68;5.00;;;17.60;99.90;;;;;;4986842;28;20499;-85
2022/07/01 10:14:17;;;;;;;6.90;4.90;;;17.60;99.90;;;;;;4988376;28;20204;-87
2022/07/01 10:16:48;;;;;;;6.65;5.47;;;17.60;99.90;;;;;;4998003;28;20176;-86
2022/07/01 10:19:20;;;;;;;6.13;5.35;;;17.60;99.90;;;;;;5010453;28;20175;-85
2022/07/01 10:21:46;;;;;;;6.45;5.03;;;17.50;99.90;;;;;;5001902;28;20195;-86
2022/07/01 10:24:17;;;;;;;7.75;5.10;;;17.50;99.90;;;;;;5012575;28;20184;-86
2022/07/01 10:26:43;;;;;;;8.75;6.07;;;17.50;99.90;;;;;;4997762;28;20187;-86
2022/07/01 10:29:32;;;;;;;8.55;5.68;;;17.50;99.90;;;;;;5008441;28;20558;-86
2022/07/01 10:32:11;;;;;;;8.30;5.85;;;17.50;99.90;;;;;;4997742;28;20661;-86
2022/07/01 10:34:41;;;;;;;11.02;5.35;;;17.50;99.90;;;;;;4979594;28;20187;-86
2022/07/01 10:37:09;;;;;;;6.93;6.22;;;17.50;99.90;;;;;;4978132;28;20259;-87
2022/07/01 10:39:53;;;;;;;6.18;5.50;;;17.50;99.90;;;;;;4978418;28;20185;-86
2022/07/01 10:42:19;;;;;;;6.85;5.40;;;17.50;99.90;;;;;;4982468;28;20220;-86
2022/07/01 10:45:05;;;;;;;8.55;5.70;;;17.40;99.90;;;;;;4998375;28;20253;-87
2022/07/01 10:47:33;;;;;;;6.93;5.63;;;17.40;99.90;;;;;;4995262;28;20659;-86
2022/07/01 10:50:03;;;;;;;6.63;6.03;;;17.40;99.90;;;;;;4993071;28;20184;-87
2022/07/01 10:52:29;;;;;;;8.00;5.70;;;17.40;99.90;;;;;;4996533;28;20526;-85
2022/07/01 10:54:57;;;;;;;7.40;5.90;;;17.40;99.90;;;;;;4985728;28;20184;-85
2022/07/01 10:57:36;;;;;;;8.30;5.85;;;17.40;99.90;;;;;;5001745;28;20211;-87
2022/07/01 11:00:02;;;;;;;6.80;6.20;;;17.40;99.90;;;;;;5009069;28;20509;-87
2022/07/01 11:02:31;;;;;;;5.97;5.38;;;17.40;99.90;;;;;;5014959;28;20179;-88
2022/07/01 11:05:00;;;;;;;6.57;5.05;;;17.40;99.90;;;;;;5012995;28;20280;-87
2022/07/01 11:07:34;;;;;;;6.60;5.97;;;17.50;99.90;;;;;;4997975;28;20242;-88
2022/07/01 11:10:03;;;;;;;6.38;5.32;;;17.50;99.90;;;;;;4996636;28;20179;-87
2022/07/01 11:12:29;;;;;;;8.88;6.88;;;17.60;99.90;;;;;;4997254;28;20180;-87
2022/07/01 11:15:01;;;;;;;6.43;5.82;;;17.50;99.90;;;;;;4996287;28;20211;-87
2022/07/01 11:17:28;;;;;;;6.65;5.90;;;17.60;99.90;;;;;;4996692;28;20215;-87
2022/07/01 11:19:58;;;;;;;6.25;5.68;;;17.50;99.90;;;;;;4995606;28;20222;-85
2022/07/01 11:22:26;;;;;;;5.70;5.13;;;17.50;99.90;;;;;;4988185;28;20188;-87
2022/07/01 11:24:53;;;;;;;6.25;5.65;;;17.50;99.90;;;;;;4992510;28;20188;-86
2022/07/01 11:27:21;;;;;;;6.35;5.10;;;17.50;99.90;;;;;;5014563;28;20206;-85
2022/07/01 11:29:52;;;;;;;5.93;5.43;;;17.40;99.90;;;;;;5016131;28;20183;-85
2022/07/01 11:32:32;;;;;;;7.20;5.55;;;17.40;99.90;;;;;;5006522;28;20183;-85
2022/07/01 11:34:59;;;;;;;6.82;5.30;;;17.40;99.90;;;;;;4995754;28;20261;-85
2022/07/01 11:40:17;;;;;;;9.60;5.93;;;17.50;99.90;;;;;;5014684;28;20183;-84
2022/07/01 11:42:45;;;;;;;7.10;5.60;;;17.50;99.90;;;;;;5003112;28;20223;-85
2022/07/01 11:45:24;;;;;;;6.47;5.55;;;17.50;99.90;;;;;;5014024;28;20210;-83
2022/07/01 11:47:49;;;;;;;6.38;5.78;;;17.50;99.90;;;;;;5015567;28;20218;-85
2022/07/01 11:50:15;;;;;;;5.88;5.30;;;17.50;99.90;;;;;;5009293;28;20184;-83
2022/07/01 11:52:41;;;;;;;6.80;5.75;;;17.50;99.90;;;;;;4995795;28;20183;-85
2022/07/01 11:55:08;;;;;;;5.80;5.30;;;17.60;99.90;;;;;;4996129;28;20211;-84
2022/07/01 11:57:34;;;;;;;9.75;6.18;;;17.50;99.90;;;;;;5001733;28;20741;-84
2022/07/01 12:00:08;;;;;;;6.75;5.60;;;17.60;99.90;;;;;;5016766;28;20182;-90
2022/07/01 12:02:34;;;;;;;7.82;5.40;;;17.50;99.90;;;;;;4996658;28;20187;-85
2022/07/01 12:05:00;;;;;;;6.15;5.55;;;17.50;99.90;;;;;;5012212;28;20212;-86
2022/07/01 12:07:26;;;;;;;5.72;5.13;;;17.50;99.90;;;;;;4996074;28;20578;-85
2022/07/01 12:09:53;;;;;;;6.13;5.25;;;17.50;99.90;;;;;;4995618;28;20226;-86
2022/07/01 12:12:23;;;;;;;6.07;5.32;;;17.60;99.90;;;;;;4994954;28;20187;-85
2022/07/01 12:14:59;;;;;;;6.53;5.40;;;17.70;99.90;;;;;;4996871;28;20188;-85
2022/07/01 12:17:26;;;;;;;6.45;5.65;;;17.80;99.90;;;;;;4995545;28;20266;-85
2022/07/01 12:19:54;;;;;;;6.38;5.72;;;17.90;99.90;;;;;;4996797;28;20175;-86
2022/07/01 12:22:25;;;;;;;7.68;6.47;;;18.10;99.90;;;;;;5007769;28;20176;-85
2022/07/01 12:24:53;;;;;;;7.47;5.90;;;18.10;99.90;;;;;;5011344;28;20187;-86
2022/07/01 12:27:22;;;;;;;10.25;5.75;;;18.10;99.90;;;;;;4995424;28;20207;-88
2022/07/01 12:29:52;;;;;;;6.32;5.55;;;18.10;99.90;;;;;;4994934;28;20180;-91
2022/07/01 12:32:22;;;;;;;6.97;5.78;;;18.20;99.90;;;;;;4993832;28;20676;-89
2022/07/01 12:34:49;;;;;;;8.73;5.53;;;18.20;99.90;;;;;;4996257;28;20279;-89
2022/07/01 12:37:29;;;;;;;6.82;5.88;;;18.30;99.90;;;;;;5002055;28;20189;-85
2022/07/01 12:40:04;;;;;;;5.97;5.25;;;18.20;99.90;;;;;;5013258;28;20160;-89
2022/07/01 12:42:37;;;;;;;8.40;5.80;;;18.30;99.90;;;;;;4995873;28;20227;-89
2022/07/01 12:45:05;;;;;;;8.88;5.72;;;18.30;99.90;;;;;;4995212;28;20184;-85
2022/07/01 12:47:34;;;;;;;6.28;5.68;;;18.30;99.90;;;;;;4989832;28;20652;-84
2022/07/01 12:50:24;;;;;;;6.22;5.57;;;18.30;99.90;;;;;;4993535;28;20281;-85
2022/07/01 12:53:03;;;;;;;7.00;6.30;;;18.40;99.90;;;;;;4978563;28;20173;-85
2022/07/01 12:55:38;;;;;;;7.25;5.82;;;18.50;99.90;;;;;;5022343;28;20190;-90
2022/07/01 12:58:18;;;;;;;10.63;6.38;;;18.70;99.90;;;;;;4977324;28;20172;-87
2022/07/01 13:00:46;;;;;;;7.63;6.05;;;19.00;99.90;;;;;;4982985;28;20179;-89
2022/07/01 13:03:13;;;;;;;7.07;6.03;;;19.10;99.90;;;;;;5011834;28;20183;-87
2022/07/01 13:05:40;;;;;;;9.07;6.57;;;19.10;99.90;;;;;;5007824;28;20268;-84
2022/07/01 13:08:06;;;;;;;8.07;6.35;;;19.20;99.90;;;;;;4994357;28;20266;-85